createdAt,value
2019-06-27T00:00:39.275Z,16.23
2019-06-27T00:01:39.299Z,16.20
2019-06-27T00:02:39.247Z,15.99
2019-06-27T00:03:39.236Z,16.03
2019-06-27T00:04:39.241Z,16.03
2019-06-27T00:05:39.231Z,15.97
2019-06-27T00:06:39.195Z,15.92
2019-06-27T00:07:39.233Z,15.89
2019-06-27T00:08:39.182Z,15.92
2019-06-27T00:09:39.166Z,15.97
2019-06-27T00:10:39.170Z,15.92
2019-06-27T00:11:39.150Z,15.93
2019-06-27T00:12:39.142Z,15.93
2019-06-27T00:13:39.123Z,15.94
2019-06-27T00:14:39.128Z,15.97
2019-06-27T00:15:39.114Z,15.89
2019-06-27T00:16:39.124Z,15.93
2019-06-27T00:17:39.079Z,15.89
2019-06-27T00:18:39.058Z,15.88
2019-06-27T00:19:39.055Z,15.94
2019-06-27T00:20:39.065Z,15.89
2019-06-27T00:21:39.061Z,15.97
2019-06-27T00:22:41.288Z,15.92
2019-06-27T00:23:39.010Z,15.89
2019-06-27T00:24:39.003Z,15.93
2019-06-27T00:25:38.997Z,15.93
2019-06-27T00:26:38.974Z,15.89
2019-06-27T00:27:38.996Z,15.96
2019-06-27T00:28:38.957Z,15.92
2019-06-27T00:29:38.968Z,15.89
2019-06-27T00:30:38.933Z,15.89
2019-06-27T00:31:38.936Z,15.93
2019-06-27T00:32:38.911Z,15.93
2019-06-27T00:33:38.915Z,15.97
2019-06-27T00:34:38.890Z,15.99
2019-06-27T00:35:38.870Z,16.03
2019-06-27T00:36:38.869Z,15.97
2019-06-27T00:37:38.857Z,16.01
2019-06-27T00:38:38.861Z,15.89
2019-06-27T00:39:38.833Z,15.93
2019-06-27T00:40:38.822Z,15.89
2019-06-27T00:41:38.807Z,15.94
2019-06-27T00:42:38.804Z,15.93
2019-06-27T00:43:38.784Z,15.93
2019-06-27T00:44:38.800Z,15.92
2019-06-27T00:45:38.763Z,15.92
2019-06-27T00:46:38.753Z,15.93
2019-06-27T00:47:38.738Z,15.92
2019-06-27T00:48:38.734Z,15.85
2019-06-27T00:49:38.721Z,15.85
2019-06-27T00:50:38.760Z,15.84
2019-06-27T00:51:38.707Z,15.76
2019-06-27T00:52:38.680Z,15.78
2019-06-27T00:53:38.686Z,15.81
2019-06-27T00:54:38.660Z,15.81
2019-06-27T00:55:38.669Z,15.81
2019-06-27T00:56:38.658Z,15.88
2019-06-27T00:57:38.681Z,15.86
2019-06-27T00:58:38.629Z,15.82
2019-06-27T00:59:38.622Z,15.84
2019-06-27T01:00:38.609Z,15.93
2019-06-27T01:01:38.591Z,15.88
2019-06-27T01:02:38.582Z,15.92
2019-06-27T01:03:38.561Z,15.93
2019-06-27T01:04:38.552Z,15.92
2019-06-27T01:05:38.568Z,15.94
2019-06-27T01:06:38.548Z,15.92
2019-06-27T01:07:38.529Z,15.86
2019-06-27T01:08:38.502Z,15.88
2019-06-27T01:09:38.515Z,15.89
2019-06-27T01:10:38.482Z,15.93
2019-06-27T01:11:38.522Z,15.97
2019-06-27T01:12:38.466Z,15.92
2019-06-27T01:13:38.466Z,15.93
2019-06-27T01:14:38.515Z,15.96
2019-06-27T01:15:38.435Z,15.94
2019-06-27T01:16:38.420Z,15.92
2019-06-27T01:17:38.456Z,15.86
2019-06-27T01:18:38.418Z,15.89
2019-06-27T01:19:38.417Z,15.92
2019-06-27T01:20:38.374Z,16.00
2019-06-27T01:21:38.359Z,15.93
2019-06-27T01:22:38.356Z,15.89
2019-06-27T01:23:38.361Z,15.93
2019-06-27T01:24:38.333Z,15.88
2019-06-27T01:25:38.326Z,15.86
2019-06-27T01:26:38.305Z,15.89
2019-06-27T01:27:38.294Z,15.89
2019-06-27T01:28:38.307Z,15.85
2019-06-27T01:29:38.279Z,15.79
2019-06-27T01:30:38.278Z,15.82
2019-06-27T01:31:38.252Z,15.84
2019-06-27T01:32:38.248Z,15.79
2019-06-27T01:33:38.231Z,15.75
2019-06-27T01:34:38.215Z,15.84
2019-06-27T01:35:38.225Z,15.82
2019-06-27T01:36:38.319Z,15.86
2019-06-27T01:37:38.219Z,15.81
2019-06-27T01:38:38.181Z,15.88
2019-06-27T01:39:38.155Z,15.88
2019-06-27T01:40:38.180Z,15.89
2019-06-27T01:41:38.167Z,15.86
2019-06-27T01:42:38.130Z,15.94
2019-06-27T01:43:38.113Z,15.93
2019-06-27T01:44:38.101Z,15.85
2019-06-27T01:45:38.114Z,15.82
2019-06-27T01:46:38.080Z,15.81
2019-06-27T01:47:38.086Z,15.85
2019-06-27T01:48:38.074Z,15.81
2019-06-27T01:49:38.048Z,15.78
2019-06-27T01:50:38.048Z,15.72
2019-06-27T01:51:38.049Z,15.81
2019-06-27T01:52:38.015Z,15.75
2019-06-27T01:53:38.033Z,15.81
2019-06-27T01:54:37.999Z,15.78
2019-06-27T01:55:38.064Z,15.78
2019-06-27T01:56:37.969Z,15.86
2019-06-27T01:57:46.492Z,15.74
2019-06-27T01:58:38.944Z,15.79
2019-06-27T01:59:37.934Z,15.72
2019-06-27T02:00:37.923Z,15.68
2019-06-27T02:01:37.922Z,15.72
2019-06-27T02:02:37.895Z,15.66
2019-06-27T02:03:37.898Z,15.63
2019-06-27T02:04:37.875Z,15.63
2019-06-27T02:05:37.865Z,15.57
2019-06-27T02:06:37.865Z,15.52
2019-06-27T02:07:37.856Z,15.51
2019-06-27T02:08:37.847Z,15.38
2019-06-27T02:09:37.839Z,15.36
2019-06-27T02:10:37.809Z,15.43
2019-06-27T02:11:37.805Z,15.41
2019-06-27T02:12:37.787Z,15.26
2019-06-27T02:13:37.797Z,15.23
2019-06-27T02:14:37.771Z,15.17
2019-06-27T02:15:37.771Z,15.19
2019-06-27T02:16:37.751Z,15.11
2019-06-27T02:17:37.728Z,15.09
2019-06-27T02:18:37.722Z,15.09
2019-06-27T02:19:37.706Z,14.99
2019-06-27T02:20:37.696Z,15.02
2019-06-27T02:21:37.725Z,14.91
2019-06-27T02:22:37.674Z,14.90
2019-06-27T02:23:37.675Z,14.91
2019-06-27T02:24:37.654Z,14.87
2019-06-27T02:25:37.639Z,14.80
2019-06-27T02:26:37.649Z,14.78
2019-06-27T02:27:37.692Z,14.78
2019-06-27T02:28:37.626Z,14.75
2019-06-27T02:29:37.597Z,14.78
2019-06-27T02:30:37.589Z,14.74
2019-06-27T02:31:37.580Z,14.80
2019-06-27T02:32:37.567Z,14.71
2019-06-27T02:33:37.562Z,14.78
2019-06-27T02:34:37.577Z,14.67
2019-06-27T02:35:37.531Z,14.69
2019-06-27T02:36:37.521Z,14.67
2019-06-27T02:37:37.515Z,14.61
2019-06-27T02:38:37.498Z,14.56
2019-06-27T02:39:37.490Z,14.53
2019-06-27T02:40:37.505Z,14.53
2019-06-27T02:41:37.485Z,14.46
2019-06-27T02:42:37.464Z,14.50
2019-06-27T02:43:37.457Z,14.44
2019-06-27T02:44:37.426Z,14.38
2019-06-27T02:45:37.426Z,14.42
2019-06-27T02:46:37.421Z,14.47
2019-06-27T02:47:37.397Z,14.49
2019-06-27T02:48:37.390Z,14.49
2019-06-27T02:49:37.383Z,14.50
2019-06-27T02:50:37.365Z,14.46
2019-06-27T02:51:37.388Z,14.47
2019-06-27T02:52:37.341Z,14.46
2019-06-27T02:53:37.331Z,14.49
2019-06-27T02:54:37.320Z,14.43
2019-06-27T02:55:37.305Z,14.35
2019-06-27T02:56:37.339Z,14.43
2019-06-27T02:57:37.291Z,14.38
2019-06-27T02:58:37.292Z,14.34
2019-06-27T02:59:37.264Z,14.34
2019-06-27T03:00:37.252Z,14.31
2019-06-27T03:01:37.239Z,14.31
2019-06-27T03:02:37.253Z,14.32
2019-06-27T03:03:37.223Z,14.27
2019-06-27T03:04:37.207Z,14.27
2019-06-27T03:05:37.226Z,14.29
2019-06-27T03:06:37.181Z,14.32
2019-06-27T03:07:37.184Z,14.20
2019-06-27T03:08:37.193Z,14.17
2019-06-27T03:09:37.153Z,14.20
2019-06-27T03:10:37.146Z,14.24
2019-06-27T03:11:37.156Z,14.17
2019-06-27T03:12:37.129Z,14.19
2019-06-27T03:13:37.107Z,14.25
2019-06-27T03:14:37.106Z,14.31
2019-06-27T03:15:37.109Z,14.21
2019-06-27T03:16:37.075Z,14.24
2019-06-27T03:17:37.060Z,14.31
2019-06-27T03:18:37.056Z,14.31
2019-06-27T03:19:37.051Z,14.32
2019-06-27T03:20:37.053Z,14.38
2019-06-27T03:21:37.019Z,14.35
2019-06-27T03:22:37.017Z,14.38
2019-06-27T03:23:36.997Z,14.39
2019-06-27T03:24:36.999Z,14.43
2019-06-27T03:25:37.013Z,14.38
2019-06-27T03:26:36.965Z,14.47
2019-06-27T03:27:36.958Z,14.38
2019-06-27T03:28:51.063Z,14.46
2019-06-27T03:29:37.939Z,14.52
2019-06-27T03:30:36.944Z,14.49
2019-06-27T03:31:36.916Z,14.53
2019-06-27T03:32:36.930Z,14.56
2019-06-27T03:33:36.894Z,14.56
2019-06-27T03:34:36.869Z,14.67
2019-06-27T03:35:36.877Z,14.67
2019-06-27T03:36:36.871Z,14.72
2019-06-27T03:37:36.835Z,14.69
2019-06-27T03:38:36.831Z,14.72
2019-06-27T03:39:36.822Z,14.78
2019-06-27T03:40:36.827Z,14.80
2019-06-27T03:41:36.806Z,14.72
2019-06-27T03:42:36.793Z,14.69
2019-06-27T03:43:36.769Z,14.75
2019-06-27T03:44:36.757Z,14.78
2019-06-27T03:45:36.797Z,14.84
2019-06-27T03:46:36.741Z,14.78
2019-06-27T03:47:36.779Z,14.74
2019-06-27T03:48:36.716Z,14.83
2019-06-27T03:49:36.700Z,14.80
2019-06-27T03:50:36.697Z,14.75
2019-06-27T03:51:36.696Z,14.80
2019-06-27T03:52:36.668Z,14.86
2019-06-27T03:53:36.693Z,14.93
2019-06-27T03:54:36.664Z,14.88
2019-06-27T03:55:36.663Z,14.93
2019-06-27T03:56:36.632Z,14.91
2019-06-27T03:57:36.643Z,14.91
2019-06-27T03:58:36.601Z,14.93
2019-06-27T03:59:36.590Z,14.93
2019-06-27T04:00:36.575Z,14.87
2019-06-27T04:01:36.567Z,14.90
2019-06-27T04:02:36.629Z,14.91
2019-06-27T04:03:36.579Z,14.90
2019-06-27T04:04:36.535Z,15.01
2019-06-27T04:05:36.520Z,15.05
2019-06-27T04:06:36.520Z,15.06
2019-06-27T04:07:36.501Z,15.13
2019-06-27T04:08:36.525Z,15.13
2019-06-27T04:09:36.494Z,15.21
2019-06-27T04:10:36.478Z,15.08
2019-06-27T04:11:36.453Z,15.01
2019-06-27T04:12:36.446Z,15.11
2019-06-27T04:13:36.437Z,15.01
2019-06-27T04:14:36.454Z,14.99
2019-06-27T04:15:36.413Z,14.99
2019-06-27T04:16:36.427Z,14.94
2019-06-27T04:17:36.389Z,14.99
2019-06-27T04:18:36.384Z,15.02
2019-06-27T04:19:36.381Z,15.06
2019-06-27T04:20:36.369Z,14.99
2019-06-27T04:21:36.340Z,14.99
2019-06-27T04:22:36.359Z,15.08
2019-06-27T04:23:36.331Z,15.08
2019-06-27T04:24:36.324Z,15.12
2019-06-27T04:25:36.319Z,15.17
2019-06-27T04:26:36.298Z,15.19
2019-06-27T04:27:36.277Z,15.19
2019-06-27T04:28:36.262Z,15.17
2019-06-27T04:29:36.295Z,15.27
2019-06-27T04:30:36.271Z,15.30
2019-06-27T04:31:36.232Z,15.38
2019-06-27T04:32:36.231Z,15.36
2019-06-27T04:33:36.217Z,15.31
2019-06-27T04:34:36.202Z,15.42
2019-06-27T04:35:36.219Z,15.36
2019-06-27T04:36:36.175Z,15.35
2019-06-27T04:37:36.176Z,15.38
2019-06-27T04:38:36.156Z,15.28
2019-06-27T04:39:36.140Z,15.42
2019-06-27T04:40:36.175Z,15.26
2019-06-27T04:41:36.130Z,15.30
2019-06-27T04:42:36.110Z,15.41
2019-06-27T04:43:36.107Z,15.36
2019-06-27T04:44:36.087Z,15.36
2019-06-27T04:45:36.077Z,15.21
2019-06-27T04:46:36.089Z,15.06
2019-06-27T04:47:36.080Z,14.98
2019-06-27T04:48:36.049Z,14.88
2019-06-27T04:49:36.063Z,14.98
2019-06-27T04:50:36.022Z,15.08
2019-06-27T04:51:38.586Z,14.91
2019-06-27T04:52:36.005Z,14.91
2019-06-27T04:53:35.986Z,14.99
2019-06-27T04:54:36.035Z,14.87
2019-06-27T04:55:35.970Z,14.78
2019-06-27T04:56:35.949Z,14.61
2019-06-27T04:57:35.963Z,14.52
2019-06-27T04:58:35.954Z,14.44
2019-06-27T04:59:51.877Z,14.49
2019-06-27T05:00:36.907Z,14.69
2019-06-27T05:01:35.895Z,15.21
2019-06-27T05:02:35.911Z,16.20
2019-06-27T05:03:35.887Z,17.23
2019-06-27T05:04:35.887Z,18.13
2019-06-27T05:05:35.850Z,18.86
2019-06-27T05:06:35.856Z,19.65
2019-06-27T05:07:35.840Z,20.23
2019-06-27T05:08:35.876Z,20.66
2019-06-27T05:09:35.849Z,21.09
2019-06-27T05:10:35.825Z,20.54
2019-06-27T05:11:35.790Z,20.79
2019-06-27T05:12:35.774Z,21.26
2019-06-27T05:13:35.770Z,21.63
2019-06-27T05:14:35.755Z,21.67
2019-06-27T05:15:35.780Z,21.02
2019-06-27T05:16:35.733Z,20.31
2019-06-27T05:17:35.730Z,19.76
2019-06-27T05:18:35.725Z,19.06
2019-06-27T05:19:35.697Z,19.08
2019-06-27T05:20:35.696Z,19.17
2019-06-27T05:21:35.685Z,19.93
2019-06-27T05:22:35.666Z,19.87
2019-06-27T05:23:35.666Z,20.06
2019-06-27T05:24:35.643Z,20.87
2019-06-27T05:25:35.642Z,21.74
2019-06-27T05:26:35.656Z,21.57
2019-06-27T05:27:35.625Z,22.31
2019-06-27T05:28:35.642Z,22.43
2019-06-27T05:29:35.607Z,22.84
2019-06-27T05:30:35.581Z,23.52
2019-06-27T05:31:35.573Z,23.24
2019-06-27T05:32:35.556Z,22.69
2019-06-27T05:33:35.541Z,22.86
2019-06-27T05:34:35.548Z,22.28
2019-06-27T05:35:35.530Z,22.44
2019-06-27T05:36:35.520Z,22.10
2019-06-27T05:37:35.500Z,22.52
2019-06-27T05:38:35.488Z,22.82
2019-06-27T05:39:35.533Z,22.54
2019-06-27T05:40:35.467Z,22.53
2019-06-27T05:41:35.480Z,22.46
2019-06-27T05:42:35.455Z,22.67
2019-06-27T05:43:35.440Z,22.50
2019-06-27T05:44:35.429Z,22.49
2019-06-27T05:45:35.418Z,22.19
2019-06-27T05:46:35.430Z,22.25
2019-06-27T05:47:35.408Z,22.53
2019-06-27T05:48:35.379Z,22.64
2019-06-27T05:49:35.369Z,23.19
2019-06-27T05:50:35.374Z,23.19
2019-06-27T05:51:35.347Z,23.60
2019-06-27T05:52:35.386Z,23.85
2019-06-27T05:53:35.374Z,23.53
2019-06-27T05:54:35.311Z,22.41
2019-06-27T05:55:35.306Z,22.54
2019-06-27T05:56:35.290Z,22.57
2019-06-27T05:57:35.284Z,22.89
2019-06-27T05:58:35.297Z,22.38
2019-06-27T05:59:35.269Z,22.31
2019-06-27T06:00:35.262Z,22.16
2019-06-27T06:01:35.240Z,21.72
2019-06-27T06:02:35.231Z,20.89
2019-06-27T06:03:35.241Z,21.42
2019-06-27T06:04:35.210Z,21.05
2019-06-27T06:05:35.239Z,21.44
2019-06-27T06:06:35.182Z,22.16
2019-06-27T06:07:35.175Z,22.43
2019-06-27T06:08:35.170Z,22.12
2019-06-27T06:09:35.153Z,23.01
2019-06-27T06:10:35.138Z,22.77
2019-06-27T06:11:35.150Z,22.64
2019-06-27T06:12:35.115Z,22.22
2019-06-27T06:13:35.108Z,21.61
2019-06-27T06:14:35.111Z,21.85
2019-06-27T06:15:35.091Z,21.41
2019-06-27T06:16:35.077Z,21.56
2019-06-27T06:17:35.081Z,21.90
2019-06-27T06:18:35.058Z,21.76
2019-06-27T06:19:35.040Z,21.91
2019-06-27T06:20:35.030Z,22.14
2019-06-27T06:21:35.037Z,22.02
2019-06-27T06:22:35.018Z,22.44
2019-06-27T06:23:35.000Z,22.41
2019-06-27T06:24:34.993Z,22.41
2019-06-27T06:25:34.998Z,22.93
2019-06-27T06:26:34.989Z,23.68
2019-06-27T06:27:34.974Z,23.87
2019-06-27T06:28:34.962Z,23.60
2019-06-27T06:29:34.951Z,23.47
2019-06-27T06:30:44.327Z,23.58
2019-06-27T06:31:35.925Z,22.28
2019-06-27T06:32:34.911Z,21.39
2019-06-27T06:33:34.888Z,21.75
2019-06-27T06:34:34.917Z,22.32
2019-06-27T06:35:34.885Z,22.69
2019-06-27T06:36:34.866Z,21.57
2019-06-27T06:37:34.852Z,21.74
2019-06-27T06:38:34.839Z,21.75
2019-06-27T06:39:34.835Z,21.90
2019-06-27T06:40:34.832Z,22.10
2019-06-27T06:41:34.806Z,22.67
2019-06-27T06:42:34.812Z,23.14
2019-06-27T06:43:34.789Z,23.17
2019-06-27T06:44:34.773Z,23.05
2019-06-27T06:45:34.774Z,23.14
2019-06-27T06:46:34.765Z,23.29
2019-06-27T06:47:34.741Z,23.31
2019-06-27T06:48:34.729Z,23.76
2019-06-27T06:49:34.724Z,24.35
2019-06-27T06:50:34.745Z,23.42
2019-06-27T06:51:34.713Z,22.80
2019-06-27T06:52:34.689Z,23.22
2019-06-27T06:53:34.687Z,23.01
2019-06-27T06:54:34.669Z,22.99
2019-06-27T06:55:34.678Z,22.87
2019-06-27T06:56:34.666Z,22.68
2019-06-27T06:57:34.638Z,22.04
2019-06-27T06:58:34.637Z,21.99
2019-06-27T06:59:34.686Z,22.23
2019-06-27T07:00:34.608Z,22.59
2019-06-27T07:01:34.610Z,21.67
2019-06-27T07:02:34.582Z,22.49
2019-06-27T07:03:34.573Z,22.02
2019-06-27T07:04:34.609Z,20.90
2019-06-27T07:05:34.559Z,21.56
2019-06-27T07:06:34.566Z,22.25
2019-06-27T07:07:34.545Z,22.43
2019-06-27T07:08:34.529Z,23.07
2019-06-27T07:09:34.513Z,23.71
2019-06-27T07:10:34.510Z,23.75
2019-06-27T07:11:34.511Z,23.97
2019-06-27T07:12:34.491Z,23.92
2019-06-27T07:13:34.466Z,23.89
2019-06-27T07:14:34.462Z,24.19
2019-06-27T07:15:34.463Z,23.89
2019-06-27T07:16:34.443Z,24.17
2019-06-27T07:17:34.563Z,23.80
2019-06-27T07:18:34.415Z,23.07
2019-06-27T07:19:34.424Z,22.74
2019-06-27T07:20:34.415Z,23.04
2019-06-27T07:21:34.412Z,23.32
2019-06-27T07:22:34.393Z,22.83
2019-06-27T07:23:34.418Z,22.53
2019-06-27T07:24:34.361Z,22.31
2019-06-27T07:25:34.341Z,22.22
2019-06-27T07:26:34.331Z,21.57
2019-06-27T07:27:34.365Z,21.66
2019-06-27T07:28:34.319Z,22.13
2019-06-27T07:29:34.331Z,22.74
2019-06-27T07:30:34.311Z,22.75
2019-06-27T07:31:34.292Z,22.43
2019-06-27T07:32:34.269Z,22.38
2019-06-27T07:33:34.275Z,22.06
2019-06-27T07:34:34.255Z,22.17
2019-06-27T07:35:34.235Z,21.97
2019-06-27T07:36:34.238Z,22.54
2019-06-27T07:37:34.276Z,23.20
2019-06-27T07:38:34.205Z,23.50
2019-06-27T07:39:34.223Z,23.70
2019-06-27T07:40:34.205Z,23.71
2019-06-27T07:41:34.197Z,23.90
2019-06-27T07:42:34.167Z,24.14
2019-06-27T07:43:34.150Z,24.17
2019-06-27T07:44:34.141Z,24.08
2019-06-27T07:45:34.137Z,23.45
2019-06-27T07:46:34.144Z,23.01
2019-06-27T07:47:34.126Z,22.65
2019-06-27T07:48:34.119Z,22.77
2019-06-27T07:49:34.090Z,22.41
2019-06-27T07:50:34.079Z,22.74
2019-06-27T07:51:34.071Z,23.20
2019-06-27T07:52:34.080Z,23.52
2019-06-27T07:53:34.051Z,23.34
2019-06-27T07:54:34.049Z,23.04
2019-06-27T07:55:34.071Z,22.93
2019-06-27T07:56:34.028Z,22.83
2019-06-27T07:57:34.002Z,23.05
2019-06-27T07:58:34.041Z,23.62
2019-06-27T07:59:33.987Z,24.07
2019-06-27T08:00:33.982Z,24.54
2019-06-27T08:01:35.551Z,24.31
2019-06-27T08:02:33.957Z,23.46
2019-06-27T08:03:33.946Z,22.83
2019-06-27T08:04:33.952Z,23.60
2019-06-27T08:05:33.970Z,23.57
2019-06-27T08:06:33.910Z,23.49
2019-06-27T08:07:33.939Z,23.57
2019-06-27T08:08:33.890Z,24.34
2019-06-27T08:09:33.898Z,24.37
2019-06-27T08:10:33.881Z,24.00
2019-06-27T08:11:33.887Z,24.08
2019-06-27T08:12:33.849Z,23.72
2019-06-27T08:13:33.839Z,23.89
2019-06-27T08:14:33.842Z,23.49
2019-06-27T08:15:33.820Z,23.94
2019-06-27T08:16:33.821Z,23.76
2019-06-27T08:17:33.825Z,23.47
2019-06-27T08:18:33.805Z,23.90
2019-06-27T08:19:33.783Z,23.75
2019-06-27T08:20:33.774Z,22.97
2019-06-27T08:21:33.778Z,22.82
2019-06-27T08:22:33.780Z,22.75
2019-06-27T08:23:41.468Z,22.46
2019-06-27T08:24:34.739Z,23.05
2019-06-27T08:25:33.708Z,22.65
2019-06-27T08:26:33.716Z,22.43
2019-06-27T08:27:33.691Z,23.05
2019-06-27T08:28:33.704Z,23.01
2019-06-27T08:29:33.675Z,23.45
2019-06-27T08:30:33.676Z,23.50
2019-06-27T08:31:33.647Z,23.62
2019-06-27T08:32:33.654Z,23.72
2019-06-27T08:33:33.655Z,24.26
2019-06-27T08:34:33.654Z,24.37
2019-06-27T08:35:33.797Z,24.10
2019-06-27T08:36:33.609Z,24.27
2019-06-27T08:37:33.590Z,23.86
2019-06-27T08:38:33.586Z,23.86
2019-06-27T08:39:33.588Z,24.14
2019-06-27T08:40:33.560Z,23.94
2019-06-27T08:41:33.544Z,23.31
2019-06-27T08:42:33.540Z,23.85
2019-06-27T08:43:33.545Z,23.95
2019-06-27T08:44:33.548Z,24.22
2019-06-27T08:45:33.520Z,24.34
2019-06-27T08:46:33.517Z,24.67
2019-06-27T08:47:33.490Z,24.79
2019-06-27T08:48:33.474Z,24.80
2019-06-27T08:49:33.488Z,24.59
2019-06-27T08:50:33.457Z,24.47
2019-06-27T08:51:33.449Z,23.98
2019-06-27T08:52:33.465Z,22.99
2019-06-27T08:53:33.426Z,22.67
2019-06-27T08:54:33.434Z,22.72
2019-06-27T08:55:33.408Z,22.99
2019-06-27T08:56:33.401Z,23.27
2019-06-27T08:57:33.388Z,23.62
2019-06-27T08:58:33.373Z,23.70
2019-06-27T08:59:33.411Z,24.08
2019-06-27T09:00:33.368Z,24.29
2019-06-27T09:01:33.343Z,24.35
2019-06-27T09:02:33.345Z,23.82
2019-06-27T09:03:33.338Z,24.14
2019-06-27T09:04:33.315Z,24.12
2019-06-27T09:05:33.325Z,23.97
2019-06-27T09:06:33.299Z,24.17
2019-06-27T09:07:33.285Z,24.41
2019-06-27T09:08:33.273Z,23.98
2019-06-27T09:09:33.262Z,24.19
2019-06-27T09:10:33.253Z,24.14
2019-06-27T09:11:36.965Z,23.62
2019-06-27T09:12:33.233Z,23.77
2019-06-27T09:13:33.222Z,24.08
2019-06-27T09:14:33.219Z,24.41
2019-06-27T09:15:33.200Z,24.68
2019-06-27T09:16:33.196Z,24.85
2019-06-27T09:17:33.204Z,24.73
2019-06-27T09:18:33.173Z,24.76
2019-06-27T09:19:33.173Z,24.73
2019-06-27T09:20:33.153Z,24.82
2019-06-27T09:21:33.150Z,25.13
2019-06-27T09:22:33.157Z,24.19
2019-06-27T09:23:33.121Z,23.95
2019-06-27T09:24:33.111Z,24.31
2019-06-27T09:25:33.103Z,24.95
2019-06-27T09:26:33.097Z,25.12
2019-06-27T09:27:33.095Z,25.06
2019-06-27T09:28:33.135Z,25.34
2019-06-27T09:29:33.069Z,25.72
2019-06-27T09:30:33.051Z,25.93
2019-06-27T09:31:33.052Z,26.25
2019-06-27T09:32:33.036Z,25.69
2019-06-27T09:33:33.039Z,25.53
2019-06-27T09:34:33.037Z,25.56
2019-06-27T09:35:33.069Z,25.52
2019-06-27T09:36:32.991Z,25.71
2019-06-27T09:37:32.985Z,25.71
2019-06-27T09:38:32.977Z,25.56
2019-06-27T09:39:32.973Z,24.42
2019-06-27T09:40:32.986Z,23.82
2019-06-27T09:41:32.948Z,22.75
2019-06-27T09:42:32.938Z,22.92
2019-06-27T09:43:32.926Z,23.38
2019-06-27T09:44:32.922Z,23.46
2019-06-27T09:45:32.909Z,23.83
2019-06-27T09:46:32.923Z,23.76
2019-06-27T09:47:32.943Z,23.46
2019-06-27T09:48:32.881Z,23.94
2019-06-27T09:49:32.868Z,24.12
2019-06-27T09:50:32.854Z,23.89
2019-06-27T09:51:32.863Z,24.49
2019-06-27T09:52:32.838Z,24.87
2019-06-27T09:53:32.825Z,24.52
2019-06-27T09:54:32.815Z,24.64
2019-06-27T09:55:32.808Z,24.69
2019-06-27T09:56:32.833Z,25.15
2019-06-27T09:57:32.809Z,25.28
2019-06-27T09:58:32.789Z,25.20
2019-06-27T09:59:32.784Z,24.77
2019-06-27T10:00:32.764Z,24.83
2019-06-27T10:01:32.762Z,25.19
2019-06-27T10:02:41.558Z,25.32
2019-06-27T10:03:33.728Z,25.54
2019-06-27T10:04:32.729Z,25.50
2019-06-27T10:05:47.584Z,25.49
2019-06-27T10:06:32.712Z,25.64
2019-06-27T10:07:32.702Z,25.01
2019-06-27T10:08:32.705Z,25.32
2019-06-27T10:09:32.681Z,24.95
2019-06-27T10:10:32.664Z,24.90
2019-06-27T10:11:32.652Z,24.94
2019-06-27T10:12:42.271Z,25.05
2019-06-27T10:13:33.644Z,25.46
2019-06-27T10:14:32.624Z,25.64
2019-06-27T10:15:32.613Z,25.86
2019-06-27T10:16:32.605Z,25.47
2019-06-27T10:17:32.606Z,24.95
2019-06-27T10:18:32.599Z,24.87
2019-06-27T10:19:32.596Z,24.67
2019-06-27T10:20:32.564Z,24.91
2019-06-27T10:21:32.555Z,24.67
2019-06-27T10:22:32.574Z,24.88
2019-06-27T10:23:32.549Z,24.83
2019-06-27T10:24:32.556Z,24.19
2019-06-27T10:25:32.551Z,24.57
2019-06-27T10:26:32.552Z,25.09
2019-06-27T10:27:32.504Z,25.39
2019-06-27T10:28:32.500Z,25.20
2019-06-27T10:29:32.527Z,25.31
2019-06-27T10:30:32.476Z,25.12
2019-06-27T10:31:32.479Z,24.73
2019-06-27T10:32:32.491Z,24.92
2019-06-27T10:33:32.438Z,24.20
2019-06-27T10:34:32.448Z,23.75
2019-06-27T10:35:32.444Z,23.38
2019-06-27T10:36:32.518Z,23.72
2019-06-27T10:37:32.467Z,24.00
2019-06-27T10:38:32.403Z,24.26
2019-06-27T10:39:32.380Z,24.31
2019-06-27T10:40:32.384Z,24.37
2019-06-27T10:41:32.373Z,24.16
2019-06-27T10:42:32.401Z,24.17
2019-06-27T10:43:32.334Z,24.26
2019-06-27T10:44:32.327Z,24.37
2019-06-27T10:45:32.313Z,24.05
2019-06-27T10:46:32.310Z,24.08
2019-06-27T10:47:32.287Z,24.04
2019-06-27T10:48:32.339Z,24.19
2019-06-27T10:49:32.303Z,24.13
2019-06-27T10:50:32.306Z,24.17
2019-06-27T10:51:32.254Z,24.14
2019-06-27T10:52:32.241Z,24.04
2019-06-27T10:53:32.224Z,23.87
2019-06-27T10:54:32.258Z,23.85
2019-06-27T10:55:32.207Z,23.65
2019-06-27T10:56:36.304Z,23.71
2019-06-27T10:57:33.192Z,23.83
2019-06-27T10:58:32.173Z,23.70
2019-06-27T10:59:32.159Z,23.87
2019-06-27T11:00:32.163Z,23.70
2019-06-27T11:01:32.147Z,23.49
2019-06-27T11:02:32.153Z,23.27
2019-06-27T11:03:32.120Z,22.99
2019-06-27T11:04:32.120Z,23.01
2019-06-27T11:05:32.114Z,22.97
2019-06-27T11:06:32.081Z,22.78
2019-06-27T11:07:32.072Z,22.14
2019-06-27T11:08:32.060Z,22.14
2019-06-27T11:09:32.101Z,22.27
2019-06-27T11:10:32.074Z,22.38
2019-06-27T11:11:32.037Z,22.35
2019-06-27T11:12:32.014Z,22.68
2019-06-27T11:13:32.020Z,22.38
2019-06-27T11:14:31.992Z,22.32
2019-06-27T11:15:32.008Z,22.65
2019-06-27T11:16:32.004Z,22.74
2019-06-27T11:17:31.960Z,22.84
2019-06-27T11:18:31.951Z,23.12
2019-06-27T11:19:31.947Z,23.23
2019-06-27T11:20:31.947Z,23.29
2019-06-27T11:21:31.932Z,23.52
2019-06-27T11:22:31.921Z,23.53
2019-06-27T11:23:31.927Z,23.32
2019-06-27T11:24:31.891Z,23.24
2019-06-27T11:25:31.874Z,23.14
2019-06-27T11:26:31.863Z,23.23
2019-06-27T11:27:31.852Z,23.35
2019-06-27T11:28:31.888Z,23.32
2019-06-27T11:29:31.834Z,23.46
2019-06-27T11:30:31.821Z,23.49
2019-06-27T11:31:31.814Z,23.52
2019-06-27T11:32:31.798Z,23.46
2019-06-27T11:33:33.246Z,23.57
2019-06-27T11:34:34.960Z,23.50
2019-06-27T11:35:31.765Z,23.49
2019-06-27T11:36:31.754Z,23.70
2019-06-27T11:37:31.749Z,23.64
2019-06-27T11:38:31.737Z,23.71
2019-06-27T11:39:31.747Z,23.77
2019-06-27T11:40:31.724Z,23.71
2019-06-27T11:41:31.700Z,23.68
2019-06-27T11:42:31.691Z,23.57
2019-06-27T11:43:31.688Z,23.47
2019-06-27T11:44:31.684Z,23.62
2019-06-27T11:45:31.660Z,23.76
2019-06-27T11:46:31.653Z,23.42
2019-06-27T11:47:34.439Z,23.76
2019-06-27T11:48:31.621Z,23.70
2019-06-27T11:49:31.613Z,23.71
2019-06-27T11:50:31.602Z,23.89
2019-06-27T11:51:31.595Z,23.89
2019-06-27T11:52:31.617Z,23.86
2019-06-27T11:53:31.569Z,23.86
2019-06-27T11:54:31.558Z,23.85
2019-06-27T11:55:31.548Z,23.90
2019-06-27T11:56:31.533Z,23.82
2019-06-27T11:57:31.521Z,23.62
2019-06-27T11:58:31.563Z,23.77
2019-06-27T11:59:31.499Z,23.94
2019-06-27T12:00:31.496Z,23.97
2019-06-27T12:01:31.496Z,24.02
2019-06-27T12:02:31.469Z,24.14
2019-06-27T12:03:45.010Z,24.37
2019-06-27T12:04:32.463Z,24.41
2019-06-27T12:05:31.442Z,24.47
2019-06-27T12:06:31.426Z,24.47
2019-06-27T12:07:31.436Z,24.20
2019-06-27T12:08:31.408Z,23.85
2019-06-27T12:09:31.436Z,23.86
2019-06-27T12:10:31.381Z,23.82
2019-06-27T12:11:31.380Z,23.80
2019-06-27T12:12:31.362Z,23.83
2019-06-27T12:13:31.367Z,24.04
2019-06-27T12:14:31.356Z,24.07
2019-06-27T12:15:31.332Z,24.24
2019-06-27T12:16:31.346Z,24.41
2019-06-27T12:17:31.304Z,24.50
2019-06-27T12:18:31.315Z,24.32
2019-06-27T12:19:31.281Z,23.89
2019-06-27T12:20:31.273Z,24.07
2019-06-27T12:21:31.258Z,23.90
2019-06-27T12:22:31.244Z,23.92
2019-06-27T12:23:31.249Z,23.77
2019-06-27T12:24:31.258Z,23.64
2019-06-27T12:25:31.215Z,23.52
2019-06-27T12:26:31.208Z,23.49
2019-06-27T12:27:31.232Z,23.60
2019-06-27T12:28:31.181Z,23.70
2019-06-27T12:29:31.194Z,23.77
2019-06-27T12:30:31.210Z,23.86
2019-06-27T12:31:31.159Z,23.79
2019-06-27T12:32:31.136Z,23.83
2019-06-27T12:33:31.140Z,23.68
2019-06-27T12:34:31.153Z,23.55
2019-06-27T12:35:31.107Z,23.53
2019-06-27T12:36:31.125Z,23.82
2019-06-27T12:37:31.084Z,23.70
2019-06-27T12:38:31.070Z,23.72
2019-06-27T12:39:31.065Z,23.72
2019-06-27T12:40:31.061Z,23.86
2019-06-27T12:41:31.041Z,23.94
2019-06-27T12:42:32.608Z,23.94
2019-06-27T12:43:31.070Z,23.87
2019-06-27T12:44:31.004Z,23.62
2019-06-27T12:45:30.997Z,23.29
2019-06-27T12:46:31.021Z,23.24
2019-06-27T12:47:30.977Z,23.29
2019-06-27T12:48:30.969Z,23.39
2019-06-27T12:49:44.907Z,23.53
2019-06-27T12:50:31.938Z,23.61
2019-06-27T12:51:30.925Z,23.77
2019-06-27T12:52:30.929Z,23.70